Time;durP1;ratioP1;P1;durP2;ratioP2;P2;SDS_P1;SDS_P2;PMS_P1;PMS_P2;Temp;Humidity;BMP_temperature;BMP_pressure;BME280_temperature;BME280_humidity;BME280_pressure;Samples;Min_cycle;Max_cycle;Signal;HPM_P1;HPM_P2
2021/12/19 00:01:48;;;;;;;18.58;10.55;;;;;;;1.72;98.58;100350.59;10501100;28;20126;-72
2021/12/19 00:12:09;;;;;;;18.27;11.43;;;;;;;1.57;98.46;100308.84;10500103;28;20090;-72
2021/12/19 00:17:10;;;;;;;24.90;12.00;;;;;;;1.68;98.31;100357.84;10498630;28;20102;-73
2021/12/19 00:22:11;;;;;;;21.20;12.35;;;;;;;0.89;98.16;100216.03;10481669;28;20078;-76
2021/12/19 00:27:12;;;;;;;22.05;13.02;;;;;;;1.59;98.61;100322.69;10497644;28;20438;-74
2021/12/19 00:32:12;;;;;;;20.02;12.32;;;;;;;1.66;99.04;100348.41;10497757;28;20040;-74
2021/12/19 00:37:13;;;;;;;25.13;12.77;;;;;;;1.61;98.55;100346.13;10497494;28;20044;-74
2021/12/19 00:42:35;;;;;;;24.90;13.77;;;;;;;1.66;98.65;100337.94;10497215;28;20037;-74
2021/12/19 00:47:36;;;;;;;22.17;13.25;;;;;;;1.65;98.76;100344.97;10497483;28;20039;-73
2021/12/19 00:52:37;;;;;;;23.38;13.40;;;;;;;1.58;98.81;100338.50;10476378;28;20057;-74
2021/12/19 00:57:37;;;;;;;21.58;12.35;;;;;;;0.73;98.23;100207.63;10455966;28;20040;-73
2021/12/19 01:02:39;;;;;;;24.70;13.65;;;;;;;0.87;98.35;100243.25;10455059;28;20052;-73
2021/12/19 01:07:40;;;;;;;26.00;12.50;;;;;;;1.31;98.41;100325.59;10455078;28;20037;-73
2021/12/19 01:12:40;;;;;;;19.80;11.50;;;;;;;1.50;98.52;100353.94;10456076;28;20060;-74
2021/12/19 01:17:42;;;;;;;18.38;10.77;;;;;;;0.67;98.66;100227.19;10454725;28;20044;-72
2021/12/19 01:22:44;;;;;;;19.13;11.75;;;;;;;0.68;98.55;100209.72;10455639;28;20136;-73
2021/12/19 01:27:45;;;;;;;21.55;11.38;;;;;;;1.64;98.73;100350.31;10454578;28;20135;-73
2021/12/19 01:32:46;;;;;;;19.67;12.35;;;;;;;1.46;98.88;100321.03;10455072;28;20045;-72
2021/12/19 01:37:47;;;;;;;23.83;12.55;;;;;;;1.62;99.32;100329.47;10448754;28;20466;-72
2021/12/19 01:42:52;;;;;;;24.75;13.45;;;;;;;1.76;98.64;100341.56;10481723;28;20138;-71
2021/12/19 01:47:53;;;;;;;23.08;12.25;;;;;;;0.58;98.33;100151.19;10478766;28;20044;-70
2021/12/19 01:52:54;;;;;;;19.55;11.95;;;;;;;1.60;99.07;100320.91;10496630;28;20044;-70
2021/12/19 01:57:55;;;;;;;22.80;12.30;;;;;;;1.18;98.47;100243.69;10495589;28;20044;-69
2021/12/19 02:02:58;;;;;;;25.70;13.75;;;;;;;1.60;98.79;100333.97;10468071;28;20480;-69
2021/12/19 02:07:59;;;;;;;21.40;12.93;;;;;;;1.76;98.74;100344.19;10461011;28;20101;-69
2021/12/19 02:13:04;;;;;;;26.42;14.73;;;;;;;1.70;98.45;100337.59;10496128;28;20048;-69
2021/12/19 02:18:12;;;;;;;24.48;14.60;;;;;;;1.43;98.21;100279.38;10487920;28;20039;-69
2021/12/19 02:23:13;;;;;;;25.45;15.00;;;;;;;1.01;97.89;100231.81;10435714;28;20045;-72
2021/12/19 02:28:14;;;;;;;25.33;15.23;;;;;;;1.36;97.95;100308.63;10453094;28;20040;-68
2021/12/19 02:33:20;;;;;;;24.27;15.13;;;;;;;1.32;97.63;100314.19;10453439;28;20033;-69
2021/12/19 02:49:19;;;;;;;23.30;13.85;;;;;;;1.44;97.51;100351.75;10462056;28;20084;-68
2021/12/19 02:54:21;;;;;;;28.33;15.98;;;;;;;1.41;97.58;100339.72;10460163;28;20132;-68
2021/12/19 02:59:23;;;;;;;21.38;14.38;;;;;;;1.66;97.51;100357.09;10460837;28;20049;-70
2021/12/19 03:04:24;;;;;;;26.30;13.93;;;;;;;1.50;97.01;100330.38;10460049;28;20100;-69
2021/12/19 03:20:04;;;;;;;23.85;14.63;;;;;;;1.21;95.87;100270.47;10459791;28;20109;-71
2021/12/19 03:25:05;;;;;;;23.38;14.88;;;;;;;1.42;96.22;100319.59;10442316;28;20072;-69
2021/12/19 03:30:08;;;;;;;23.42;14.63;;;;;;;1.41;95.49;100334.47;10460120;28;20052;-69
2021/12/19 03:35:09;;;;;;;24.40;14.68;;;;;;;1.49;95.18;100357.47;10459951;28;20048;-69
2021/12/19 03:40:21;;;;;;;24.95;14.65;;;;;;;0.75;94.51;100263.28;10476876;28;20051;-69
2021/12/19 03:45:24;;;;;;;23.65;14.65;;;;;;;0.14;94.88;100136.84;10500416;28;20213;-70
2021/12/19 03:50:25;;;;;;;32.97;14.90;;;;;;;1.56;95.04;100375.28;10500858;28;20064;-69
2021/12/19 03:55:27;;;;;;;25.40;15.57;;;;;;;1.54;94.76;100353.59;10468309;28;20044;-69
2021/12/19 04:00:29;;;;;;;22.17;14.27;;;;;;;1.64;94.29;100369.47;10458276;28;20083;-69
2021/12/19 04:05:31;;;;;;;24.45;14.27;;;;;;;0.84;93.84;100252.16;10456900;28;20045;-69
2021/12/19 04:10:32;;;;;;;29.23;15.40;;;;;;;1.57;94.11;100376.09;10458199;28;20049;-69
2021/12/19 04:15:34;;;;;;;24.73;14.95;;;;;;;0.35;93.62;100189.38;10458947;28;20548;-69
2021/12/19 04:20:35;;;;;;;23.67;14.77;;;;;;;1.39;93.62;100366.94;10457673;28;20106;-69
2021/12/19 04:25:36;;;;;;;26.65;14.85;;;;;;;1.43;94.04;100390.16;10458168;28;20051;-69
2021/12/19 04:30:37;;;;;;;23.00;14.60;;;;;;;1.44;93.99;100414.56;10465146;28;20050;-69
2021/12/19 04:35:42;;;;;;;27.17;15.23;;;;;;;1.43;94.29;100412.88;10456799;28;20044;-68
2021/12/19 05:17:38;;;;;;;26.92;15.70;;;;;;;1.91;94.84;100413.78;10454610;28;20037;-68
2021/12/19 05:22:47;;;;;;;30.65;16.60;;;;;;;1.90;94.76;100403.44;10455514;28;20041;-69
2021/12/19 05:27:51;;;;;;;28.73;16.08;;;;;;;2.00;94.62;100420.16;10465508;28;20093;-69
2021/12/19 05:32:53;;;;;;;;;;;;;;;2.40;94.43;100427.72;10472397;28;20037;-69
2021/12/19 05:48:32;;;;;;;26.85;15.07;;;;;;;2.46;93.77;100428.09;10454504;28;20068;-70
2021/12/19 05:53:33;;;;;;;28.48;15.60;;;;;;;2.34;93.22;100438.69;10436275;28;20048;-69
2021/12/19 05:58:34;;;;;;;30.08;16.58;;;;;;;2.36;93.40;100429.72;10454302;28;20037;-70
2021/12/19 06:03:35;;;;;;;29.38;15.95;;;;;;;2.39;93.06;100413.75;10454082;28;20048;-69
2021/12/19 06:08:36;;;;;;;30.80;15.27;;;;;;;1.73;93.54;100297.25;10453816;28;20041;-69
2021/12/19 06:13:37;;;;;;;28.73;16.75;;;;;;;2.17;93.34;100393.56;10454624;28;20444;-69
2021/12/19 06:18:38;;;;;;;27.13;16.15;;;;;;;2.44;93.53;100409.03;10457014;28;20040;-70
2021/12/19 06:23:39;;;;;;;28.75;15.98;;;;;;;2.64;92.89;100423.28;10461473;28;20045;-70
2021/12/19 06:28:40;;;;;;;29.17;16.73;;;;;;;1.75;92.83;100275.25;10462125;28;20045;-69
2021/12/19 06:33:41;;;;;;;29.45;16.10;;;;;;;2.70;93.19;100422.81;10447361;28;20484;-72
2021/12/19 06:38:43;;;;;;;31.13;16.10;;;;;;;2.74;92.79;100416.38;10500352;28;20545;-69
2021/12/19 06:43:43;;;;;;;24.65;15.20;;;;;;;2.05;92.76;100287.84;10502413;28;20142;-70
2021/12/19 06:48:44;;;;;;;28.55;15.55;;;;;;;2.87;92.60;100420.69;10501723;28;20689;-70
2021/12/19 06:53:45;;;;;;;27.55;15.55;;;;;;;2.76;92.24;100376.09;10501452;28;20076;-70
2021/12/19 06:58:47;;;;;;;25.55;15.43;;;;;;;2.32;92.59;100278.88;10502736;28;20055;-70
2021/12/19 07:03:48;;;;;;;27.52;15.57;;;;;;;3.01;92.24;100386.38;10486274;28;20040;-69
2021/12/19 07:08:50;;;;;;;27.05;15.07;;;;;;;3.32;91.93;100431.22;10502868;28;20049;-70
2021/12/19 07:13:53;;;;;;;24.50;14.43;;;;;;;2.68;91.75;100306.69;10504289;28;20476;-70
2021/12/19 07:18:53;;;;;;;24.33;14.70;;;;;;;3.52;92.41;100421.81;10502991;28;20040;-70
2021/12/19 07:23:55;;;;;;;25.58;14.70;;;;;;;2.71;91.54;100284.63;10497526;28;20064;-70
2021/12/19 07:28:56;;;;;;;22.20;14.57;;;;;;;3.64;91.50;100423.47;10504319;28;20037;-70
2021/12/19 07:33:58;;;;;;;31.63;14.57;;;;;;;2.70;91.17;100241.00;10504876;28;20610;-70
2021/12/19 07:39:05;;;;;;;27.02;15.20;;;;;;;3.52;90.97;100364.84;10497860;28;20033;-74
2021/12/19 07:44:07;;;;;;;25.30;15.13;;;;;;;3.11;90.57;100278.88;10502393;28;20040;-71
2021/12/19 07:49:08;;;;;;;22.42;14.32;;;;;;;3.96;90.73;100391.16;10496632;28;20067;-70
2021/12/19 07:54:09;;;;;;;24.23;15.43;;;;;;;3.71;90.55;100337.97;10497709;28;20127;-70
2021/12/19 07:59:10;;;;;;;25.58;15.15;;;;;;;3.24;89.64;100229.69;10474077;28;20480;-69
2021/12/19 08:04:11;;;;;;;22.88;14.90;;;;;;;4.17;89.91;100367.53;10492837;28;20049;-71
2021/12/19 08:09:22;;;;;;;25.88;16.15;;;;;;;2.64;89.17;100123.47;10495376;28;20511;-68
2021/12/19 08:14:22;;;;;;;27.10;16.80;;;;;;;3.49;89.92;100249.53;10477029;28;20041;-72
2021/12/19 08:19:23;;;;;;;26.17;16.75;;;;;;;4.21;89.50;100350.53;10494034;28;20547;-70
2021/12/19 08:24:24;;;;;;;25.77;15.98;;;;;;;3.88;89.41;100291.91;10491403;28;20536;-70
2021/12/19 08:29:25;;;;;;;27.80;16.70;;;;;;;4.02;89.04;100325.78;10490854;28;20036;-69
2021/12/19 08:34:26;;;;;;;24.48;15.43;;;;;;;4.17;88.76;100338.63;10494175;28;20075;-72
2021/12/19 08:39:28;;;;;;;30.27;15.20;;;;;;;3.95;88.61;100334.28;10493597;28;20094;-70
2021/12/19 08:44:29;;;;;;;29.98;16.13;;;;;;;4.08;90.04;100327.06;10489757;28;20075;-70
2021/12/19 08:49:30;;;;;;;26.20;15.95;;;;;;;4.08;88.98;100309.50;10492764;28;20487;-72
2021/12/19 08:54:31;;;;;;;27.45;16.77;;;;;;;3.97;89.07;100292.94;10475134;28;20415;-70
2021/12/19 08:59:32;;;;;;;30.27;15.95;;;;;;;4.20;88.61;100302.38;10493148;28;20135;-70
2021/12/19 09:04:33;;;;;;;26.40;15.45;;;;;;;4.26;88.47;100291.34;10470341;28;20517;-71
2021/12/19 09:09:34;;;;;;;26.40;15.00;;;;;;;3.33;88.00;100136.22;10491168;28;20169;-70
2021/12/19 09:14:35;;;;;;;24.38;15.77;;;;;;;4.15;88.17;100288.78;10491558;28;20033;-70
2021/12/19 09:19:36;;;;;;;26.35;14.38;;;;;;;4.08;87.93;100277.13;10491279;28;20032;-70
2021/12/19 09:24:37;;;;;;;27.55;15.35;;;;;;;3.95;88.48;100232.63;10474410;28;20418;-72
2021/12/19 09:29:37;;;;;;;24.08;14.48;;;;;;;3.32;87.98;100106.53;10488902;28;20039;-70
2021/12/19 09:34:38;;;;;;;23.02;14.73;;;;;;;4.06;87.91;100237.81;10488511;28;20035;-69
2021/12/19 09:39:40;;;;;;;25.58;15.10;;;;;;;3.95;88.42;100224.75;10490709;28;20098;-69
2021/12/19 09:44:41;;;;;;;25.98;15.82;;;;;;;4.03;88.40;100229.34;10471254;28;20116;-69
2021/12/19 09:49:41;;;;;;;25.50;15.95;;;;;;;3.33;88.08;100123.09;10472227;28;20044;-70
2021/12/19 09:54:42;;;;;;;25.80;15.15;;;;;;;3.95;88.37;100219.50;10473609;28;20101;-69
2021/12/19 09:59:43;;;;;;;25.30;16.25;;;;;;;4.18;88.41;100238.56;10487139;28;20075;-73
2021/12/19 10:04:45;;;;;;;27.63;15.85;;;;;;;3.93;87.76;100192.50;10485691;28;20048;-70
2021/12/19 10:10:02;;;;;;;30.45;17.83;;;;;;;4.28;87.93;100221.06;10495513;28;20029;-71
2021/12/19 10:15:10;;;;;;;26.98;16.05;;;;;;;4.09;87.26;100165.75;10489612;28;20079;-71
2021/12/19 10:20:15;;;;;;;27.67;16.10;;;;;;;4.54;86.34;100205.66;10475765;28;20418;-71
2021/12/19 10:25:22;;;;;;;21.67;14.20;;;;;;;4.47;85.36;100174.78;10494979;28;20040;-72
2021/12/19 10:30:28;;;;;;;21.88;14.35;;;;;;;4.53;85.54;100197.91;10493780;28;20047;-71
2021/12/19 10:35:54;;;;;;;23.17;14.68;;;;;;;4.61;85.30;100190.19;10494513;28;20452;-70
2021/12/19 10:41:11;;;;;;;21.33;13.95;;;;;;;2.90;84.22;99912.31;10492208;28;20048;-70
2021/12/19 10:46:12;;;;;;;23.65;14.50;;;;;;;4.60;84.57;100192.94;10494658;28;20052;-71
2021/12/19 10:51:19;;;;;;;20.08;13.63;;;;;;;4.38;83.91;100130.88;10493957;28;20060;-71
2021/12/19 10:56:21;;;;;;;19.52;13.93;;;;;;;4.55;83.37;100161.81;10493702;28;20033;-70
2021/12/19 11:01:51;;;;;;;20.17;12.50;;;;;;;4.76;82.97;100191.50;10475595;28;20086;-69
2021/12/19 11:06:58;;;;;;;20.33;13.05;;;;;;;4.23;81.88;100123.34;10493732;28;20052;-70
2021/12/19 11:12:07;;;;;;;20.60;13.30;;;;;;;4.50;81.69;100183.22;10501237;28;20040;-70
2021/12/19 11:17:20;;;;;;;22.40;13.20;;;;;;;4.54;80.80;100179.34;10501205;28;20500;-69
2021/12/19 11:22:27;;;;;;;21.23;13.07;;;;;;;4.35;80.72;100171.41;10500829;28;20068;-70
2021/12/19 11:27:29;;;;;;;24.98;14.23;;;;;;;3.38;81.06;100039.50;10500752;28;20139;-68
2021/12/19 11:32:39;;;;;;;23.77;14.30;;;;;;;3.40;80.37;100024.47;10500265;28;20381;-70
2021/12/19 11:37:44;;;;;;;22.42;12.70;;;;;;;4.23;79.76;100143.53;10499513;28;20488;-68
2021/12/19 11:42:45;;;;;;;25.40;13.15;;;;;;;3.60;80.32;100042.00;10499140;28;20476;-69
2021/12/19 11:48:10;;;;;;;20.58;12.85;;;;;;;4.27;80.20;100155.44;10499194;28;20079;-69
2021/12/19 11:53:10;;;;;;;18.48;12.50;;;;;;;4.09;80.74;100156.06;10499634;28;20040;-69
2021/12/19 11:58:22;;;;;;;16.08;10.50;;;;;;;3.97;80.19;100145.75;10496925;28;20049;-69
2021/12/19 12:03:25;;;;;;;15.90;10.77;;;;;;;3.63;80.84;100104.78;10498538;28;20392;-69
2021/12/19 12:08:27;;;;;;;19.02;11.13;;;;;;;2.62;81.12;99954.91;10496859;28;20086;-72
2021/12/19 12:13:33;;;;;;;19.60;10.65;;;;;;;3.62;81.36;100108.38;10463955;28;20037;-69
2021/12/19 12:18:39;;;;;;;26.63;11.43;;;;;;;3.28;81.58;100067.50;10475976;28;20037;-70
2021/12/19 12:23:53;;;;;;;21.92;10.68;;;;;;;3.45;82.42;100105.50;10456353;28;20049;-69
2021/12/19 12:28:55;;;;;;;45.20;12.40;;;;;;;3.18;83.42;100054.31;10456445;28;20041;-69
2021/12/19 12:33:57;;;;;;;33.55;11.02;;;;;;;3.09;83.04;100053.28;10456806;28;20045;-69
2021/12/19 12:38:57;;;;;;;54.70;12.43;;;;;;;3.28;83.64;100088.50;10454712;28;20044;-70
2021/12/19 12:44:05;;;;;;;21.50;12.02;;;;;;;3.08;84.18;100042.91;10471388;28;20063;-70
2021/12/19 12:49:14;;;;;;;27.15;10.88;;;;;;;1.72;84.95;99829.47;10495836;28;20139;-69
2021/12/19 12:54:18;;;;;;;23.50;11.80;;;;;;;3.20;85.22;100066.38;10477591;28;20560;-69
2021/12/19 12:59:27;;;;;;;21.23;13.47;;;;;;;3.01;84.84;100050.47;10496480;28;20040;-69
2021/12/19 13:04:28;;;;;;;21.63;12.05;;;;;;;2.15;85.49;99931.59;10496830;28;20062;-70
2021/12/19 13:09:39;;;;;;;25.65;12.38;;;;;;;2.91;85.79;100081.06;10495741;28;20089;-71
2021/12/19 13:15:06;;;;;;;23.80;11.63;;;;;;;2.79;86.10;100074.19;10496403;28;20531;-72
2021/12/19 13:20:13;;;;;;;17.85;10.82;;;;;;;1.41;86.76;99857.25;10482995;28;20041;-73
2021/12/19 13:25:18;;;;;;;18.00;9.52;;;;;;;2.42;85.88;100024.69;10488787;28;20098;-74
2021/12/19 13:30:29;;;;;;;19.65;10.50;;;;;;;2.23;86.79;100039.28;10492204;28;20086;-73
2021/12/19 13:35:33;;;;;;;15.95;10.13;;;;;;;1.20;86.16;99914.72;10492653;28;20085;-72
2021/12/19 13:40:38;;;;;;;21.60;11.57;;;;;;;1.04;87.06;99909.84;10494523;28;20434;-72
2021/12/19 13:45:52;;;;;;;16.98;10.93;;;;;;;1.44;88.47;99972.22;10491001;28;20048;-72
2021/12/19 13:51:01;;;;;;;19.58;11.07;;;;;;;1.66;88.38;100010.63;10494222;28;20052;-72
2021/12/19 13:56:10;;;;;;;20.42;11.20;;;;;;;1.38;88.26;99976.13;10491281;28;20040;-72
2021/12/19 14:01:19;;;;;;;19.67;11.35;;;;;;;1.66;88.00;100029.78;10470108;28;20032;-71
2021/12/19 14:06:37;;;;;;;17.35;10.95;;;;;;;1.43;88.79;100004.56;10492391;28;20048;-72
2021/12/19 14:11:42;;;;;;;19.67;11.05;;;;;;;1.47;88.87;100022.53;10491674;28;20085;-71
2021/12/19 14:16:47;;;;;;;18.63;10.75;;;;;;;1.52;89.32;100043.09;10490036;28;20032;-74
2021/12/19 14:21:51;;;;;;;19.85;10.25;;;;;;;1.52;89.16;100016.94;10472610;28;20078;-71
2021/12/19 14:27:08;;;;;;;21.33;11.13;;;;;;;1.43;89.08;100001.94;10475489;28;20119;-71
2021/12/19 14:32:16;;;;;;;17.20;9.43;;;;;;;0.76;89.18;99913.75;10490076;28;20049;-71
2021/12/19 14:37:31;;;;;;;17.38;9.57;;;;;;;0.96;89.61;99948.81;10475389;28;20496;-71
2021/12/19 14:42:55;;;;;;;17.38;9.85;;;;;;;1.45;89.20;100040.13;10489567;28;20377;-72
2021/12/19 14:48:10;;;;;;;18.42;10.07;;;;;;;1.25;89.19;100014.63;10474937;28;20407;-73
2021/12/19 14:53:28;;;;;;;17.00;9.65;;;;;;;1.30;89.54;100018.56;10483885;28;20091;-70
2021/12/19 14:58:31;;;;;;;18.10;10.75;;;;;;;1.27;89.73;100015.38;10497307;28;20500;-71
2021/12/19 15:03:35;;;;;;;19.10;10.10;;;;;;;1.18;89.63;100009.03;10483665;28;20051;-70
2021/12/19 15:08:38;;;;;;;18.75;11.23;;;;;;;1.49;89.56;100061.66;10500596;28;20040;-72
2021/12/19 15:13:39;;;;;;;21.13;11.20;;;;;;;0.15;89.63;99817.22;10490632;28;20037;-73
2021/12/19 15:18:43;;;;;;;22.20;11.40;;;;;;;1.52;90.33;100014.31;10497981;28;20094;-71
2021/12/19 15:23:44;;;;;;;25.98;10.70;;;;;;;1.87;89.60;100057.91;10498770;28;20071;-72
2021/12/19 15:28:48;;;;;;;23.83;12.82;;;;;;;1.94;90.01;100054.66;10490468;28;20120;-73
2021/12/19 15:33:50;;;;;;;21.70;12.13;;;;;;;1.94;89.60;100049.41;10497180;28;20389;-74
2021/12/19 15:38:51;;;;;;;19.73;11.05;;;;;;;1.78;89.74;100026.22;10496014;28;20049;-73
2021/12/19 15:43:52;;;;;;;22.17;12.93;;;;;;;1.15;89.82;99907.25;10480132;28;20533;-73
2021/12/19 15:48:54;;;;;;;23.45;12.93;;;;;;;1.12;89.39;99902.25;10498788;28;20173;-72
2021/12/19 15:53:55;;;;;;;20.95;12.18;;;;;;;1.72;90.41;100005.75;10497160;28;20123;-73
2021/12/19 15:58:56;;;;;;;22.67;13.43;;;;;;;0.99;89.94;99904.13;10498440;28;20080;-75
2021/12/19 16:03:58;;;;;;;23.75;13.75;;;;;;;1.31;90.43;99960.03;10497490;28;20068;-73
2021/12/19 16:08:59;;;;;;;22.70;13.52;;;;;;;1.33;91.04;99939.00;10492599;28;20044;-73
2021/12/19 16:14:00;;;;;;;22.50;13.35;;;;;;;1.53;90.39;99992.44;10498773;28;20624;-72
2021/12/19 16:19:04;;;;;;;22.83;13.30;;;;;;;1.85;90.69;100038.84;10497526;28;20055;-73
2021/12/19 16:24:05;;;;;;;;;;;;;;;1.87;89.72;100024.66;10495099;28;20040;-73
2021/12/19 16:29:06;;;;;;;24.27;13.98;;;;;;;1.64;90.30;99992.41;10479061;28;19922;-73
2021/12/19 16:34:07;;;;;;;24.95;14.73;;;;;;;1.17;89.88;99905.34;10496073;28;20095;-73
2021/12/19 16:39:17;;;;;;;23.80;13.57;;;;;;;0.94;90.28;99882.75;10496678;28;20395;-73
2021/12/19 16:44:21;;;;;;;27.67;14.40;;;;;;;1.65;90.28;100004.56;10493850;28;20412;-73
2021/12/19 16:49:22;;;;;;;25.67;14.13;;;;;;;0.67;90.76;99855.13;10490112;28;20439;-73
2021/12/19 16:54:26;;;;;;;27.30;14.43;;;;;;;0.82;90.67;99869.66;10491013;28;20048;-73
2021/12/19 16:59:28;;;;;;;27.25;14.52;;;;;;;1.40;91.33;99987.28;10488448;28;20065;-72
2021/12/19 17:04:29;;;;;;;28.10;15.15;;;;;;;1.35;90.83;99973.75;10488316;28;20415;-72
2021/12/19 17:09:30;;;;;;;28.60;15.70;;;;;;;1.02;91.23;99930.06;10487914;28;20037;-73
2021/12/19 17:14:31;;;;;;;29.52;16.05;;;;;;;1.11;91.33;99952.91;10483804;28;20037;-73
2021/12/19 17:19:32;;;;;;;27.85;14.85;;;;;;;1.05;91.54;99950.75;10492129;28;20043;-73
2021/12/19 17:24:33;;;;;;;31.23;15.15;;;;;;;1.18;91.85;99982.06;10483832;28;20109;-72
2021/12/19 17:29:34;;;;;;;34.35;15.95;;;;;;;1.00;91.62;99955.50;10453331;28;20047;-72
2021/12/19 17:34:35;;;;;;;31.48;16.67;;;;;;;1.12;91.89;99978.94;10436594;28;20033;-72
2021/12/19 17:39:41;;;;;;;29.40;16.33;;;;;;;0.43;91.67;99849.97;10447050;28;20049;-73
2021/12/19 17:44:42;;;;;;;31.00;16.40;;;;;;;0.63;92.29;99893.75;10482967;28;20051;-74
2021/12/19 17:49:44;;;;;;;26.83;14.85;;;;;;;0.94;92.06;99938.50;10492891;28;20060;-74
2021/12/19 17:54:46;;;;;;;25.13;14.13;;;;;;;-0.05;91.69;99779.56;10491535;28;20048;-74
2021/12/19 17:59:47;;;;;;;31.48;15.20;;;;;;;0.54;91.84;99880.50;10493079;28;20174;-76
2021/12/19 18:04:48;;;;;;;24.10;13.65;;;;;;;0.39;91.89;99836.31;10491781;28;20564;-73
2021/12/19 18:09:49;;;;;;;24.67;14.00;;;;;;;0.23;92.05;99826.16;10493400;28;20044;-73
2021/12/19 18:14:50;;;;;;;26.35;14.70;;;;;;;0.85;92.23;99924.31;10495056;28;20036;-73
2021/12/19 18:19:51;;;;;;;26.85;13.95;;;;;;;0.83;92.41;99923.59;10483900;28;20044;-73
2021/12/19 18:24:53;;;;;;;27.00;15.07;;;;;;;0.98;92.65;99936.47;10498326;28;20049;-73
2021/12/19 18:29:53;;;;;;;24.35;13.68;;;;;;;0.98;92.06;99923.38;10501094;28;20143;-73
2021/12/19 18:34:57;;;;;;;30.38;14.82;;;;;;;0.10;92.27;99780.19;10500277;28;20467;-73
2021/12/19 18:40:03;;;;;;;23.55;13.48;;;;;;;0.94;92.54;99916.75;10500580;28;20040;-75
2021/12/19 18:45:13;;;;;;;27.63;14.70;;;;;;;0.93;92.29;99920.28;10482903;28;20032;-73
2021/12/19 19:00:32;;;;;;;25.15;14.90;;;;;;;0.83;92.73;99894.00;10458456;28;20048;-72
2021/12/19 19:05:36;;;;;;;24.30;13.93;;;;;;;-0.18;92.44;99721.38;10459422;28;20056;-72
2021/12/19 19:10:37;;;;;;;31.60;14.95;;;;;;;0.71;92.59;99869.63;10499660;28;20036;-72
2021/12/19 19:15:37;;;;;;;23.92;13.23;;;;;;;-0.05;92.03;99745.63;10483659;28;20037;-73
2021/12/19 19:20:38;;;;;;;25.85;14.52;;;;;;;0.53;92.40;99842.28;10500902;28;20051;-72
2021/12/19 19:25:40;;;;;;;27.13;13.88;;;;;;;0.72;92.46;99899.22;10499092;28;20036;-72
2021/12/19 19:30:41;;;;;;;26.33;14.98;;;;;;;0.51;92.73;99862.44;10500313;28;20546;-72
2021/12/19 19:35:42;;;;;;;25.95;13.90;;;;;;;0.62;92.93;99870.31;10500297;28;20079;-72
2021/12/19 19:41:01;;;;;;;25.73;14.32;;;;;;;0.52;92.89;99864.13;10498780;28;20051;-72
2021/12/19 19:51:22;;;;;;;25.30;14.23;;;;;;;0.52;92.52;99867.59;10497469;28;20504;-72
2021/12/19 19:56:23;;;;;;;24.17;13.65;;;;;;;0.22;92.68;99841.97;10481949;28;20044;-71
2021/12/19 20:01:24;;;;;;;27.33;13.70;;;;;;;-0.19;92.42;99796.25;10456539;28;20056;-72
2021/12/19 20:06:26;;;;;;;28.05;14.63;;;;;;;-0.52;92.95;99744.75;10484558;28;20122;-72
2021/12/19 20:11:27;;;;;;;30.45;13.75;;;;;;;-0.10;92.96;99800.78;10452996;28;20033;-72
2021/12/19 20:16:28;;;;;;;25.45;14.00;;;;;;;0.03;93.08;99852.09;10439387;28;20472;-72
2021/12/19 20:21:29;;;;;;;24.50;14.00;;;;;;;-0.39;92.97;99794.25;10457151;28;20060;-72
2021/12/19 20:26:30;;;;;;;27.35;13.82;;;;;;;-0.25;93.40;99828.00;10456932;28;20080;-72
2021/12/19 20:31:32;;;;;;;28.17;14.10;;;;;;;-1.79;93.02;99618.31;10439704;28;20040;-74
2021/12/19 20:36:35;;;;;;;32.38;14.43;;;;;;;-1.19;93.53;99682.66;10457679;28;20052;-71
2021/12/19 20:41:37;;;;;;;26.38;14.32;;;;;;;-0.30;93.93;99809.22;10457023;28;20071;-72
2021/12/19 20:46:40;;;;;;;25.83;13.38;;;;;;;-1.14;93.32;99628.41;10456768;28;20094;-72
2021/12/19 20:51:41;;;;;;;23.70;12.82;;;;;;;0.10;93.18;99814.16;10460326;28;20511;-72
2021/12/19 20:56:43;;;;;;;23.75;13.25;;;;;;;0.10;92.43;99816.75;10480117;28;20460;-72
2021/12/19 21:01:44;;;;;;;21.73;12.38;;;;;;;0.24;92.42;99821.81;10496901;28;20479;-72
2021/12/19 21:06:45;;;;;;;26.70;13.45;;;;;;;-0.65;92.08;99657.91;10497296;28;20078;-71
2021/12/19 21:11:50;;;;;;;23.88;13.30;;;;;;;0.10;92.73;99804.53;10497681;28;20123;-72
2021/12/19 21:22:10;;;;;;;29.75;14.05;;;;;;;0.03;92.51;99797.25;10496842;28;20075;-71
2021/12/19 21:27:16;;;;;;;26.23;13.48;;;;;;;0.00;93.21;99785.28;10496929;28;20067;-71
2021/12/19 21:32:17;;;;;;;22.73;12.30;;;;;;;-1.59;92.56;99505.72;10495932;28;20522;-71
2021/12/19 21:42:39;;;;;;;21.35;12.13;;;;;;;-1.06;91.96;99586.97;10495610;28;20041;-71
2021/12/19 21:47:40;;;;;;;24.23;12.88;;;;;;;-0.35;92.51;99713.03;10496324;28;20484;-71
2021/12/19 21:52:42;;;;;;;23.60;12.30;;;;;;;-0.03;92.28;99751.53;10495244;28;20155;-71
2021/12/19 21:57:43;;;;;;;22.67;12.63;;;;;;;-0.72;91.48;99653.13;10478281;28;20056;-71
2021/12/19 22:02:44;;;;;;;22.13;11.77;;;;;;;-0.45;92.10;99714.63;10495773;28;20040;-71
2021/12/19 22:07:47;;;;;;;22.98;12.40;;;;;;;-0.28;92.65;99742.94;10494963;28;20045;-71
2021/12/19 22:12:59;;;;;;;25.02;12.07;;;;;;;-1.17;92.57;99605.16;10496322;28;20527;-71
2021/12/19 22:18:03;;;;;;;22.92;11.23;;;;;;;-0.77;92.55;99663.06;10494993;28;20123;-71
2021/12/19 22:23:05;;;;;;;20.37;10.90;;;;;;;-0.70;91.24;99713.81;10496326;28;20044;-72
2021/12/19 22:28:09;;;;;;;21.05;11.75;;;;;;;-1.44;92.37;99616.63;10494785;28;20041;-71
2021/12/19 22:33:10;;;;;;;21.05;11.18;;;;;;;-1.45;92.89;99596.72;10495185;28;20044;-71
2021/12/19 22:38:11;;;;;;;22.25;10.77;;;;;;;-0.59;91.72;99746.13;10494658;28;20040;-71
2021/12/19 22:43:12;;;;;;;26.92;11.18;;;;;;;-0.60;91.79;99760.97;10477498;28;20050;-71
2021/12/19 22:48:13;;;;;;;21.75;12.48;;;;;;;-1.42;92.34;99619.97;10494338;28;20468;-71
2021/12/19 22:53:14;;;;;;;24.08;11.23;;;;;;;-0.52;93.52;99761.22;10494292;28;20040;-71
2021/12/19 22:58:14;;;;;;;19.98;10.68;;;;;;;-1.12;93.07;99644.75;10495204;28;20105;-71
2021/12/19 23:03:19;;;;;;;23.02;11.98;;;;;;;-0.19;93.33;99751.84;10494541;28;20067;-71
2021/12/19 23:08:21;;;;;;;;;;;;;;;0.10;93.23;99733.19;10466601;28;20405;-74
2021/12/19 23:13:25;;;;;;;19.55;10.40;;;;;;;-0.14;92.00;99679.25;10461359;28;20368;-71
2021/12/19 23:18:26;;;;;;;24.30;11.38;;;;;;;-0.27;91.91;99670.69;10460972;28;20083;-71
2021/12/19 23:23:26;;;;;;;20.65;11.77;;;;;;;-0.24;92.53;99668.69;10460469;28;20504;-71
2021/12/19 23:28:27;;;;;;;23.27;11.30;;;;;;;-0.91;92.44;99558.94;10459036;28;20075;-71
2021/12/19 23:49:06;;;;;;;19.98;11.05;;;;;;;-0.10;93.26;99622.41;10459619;28;20082;-71
2021/12/19 23:54:07;;;;;;;23.55;11.50;;;;;;;0.04;92.61;99642.25;10458287;28;20450;-71
2021/12/19 23:59:08;;;;;;;22.20;11.15;;;;;;;0.20;93.07;99629.66;10457996;28;20045;-71
